首页
METAR-TAF:

METAR-TAF

机场 :

Imperial County Airport (Boley Field)

Imperial, 加利福尼亚州, 美国

纬度: 32-50-03N, 经度: 115-34-43W, 海拔: 17米

当前天气观测

该预报发布于22分钟前的18:53 UTC
静风
温度 17°C
湿度 72%
气压 1021 hPa
能見度: 16.1公里
少量云层高于6000英尺
多云层高于11000英尺

METAR: KIPL 071853Z AUTO 00000KT 10SM FEW060 BKN110 17/12 A3014 RMK AO2 SLP204 T01670122

时间: 11:15 (19:15 UTC)

预报

该预报发布于1小时和48分钟前的17:27 UTC
预报有效从07日的 18点(UTC)到 08日的 18点(UTC)
风速4节,风向多变
能見度: 10公里
散云层高于9000英尺
多云层高于25000英尺
从 07日的 2300点(UTC)
风速4节,风向多变
能見度: 10公里
多云层高于8000英尺
阴天层高于12000英尺
附近有阵雨
从 08日的 0500点(UTC)
风速4节,风向西转西南
能見度: 10公里
多云层高于9000英尺
阴天层高于12000英尺
从 08日的 1400点(UTC)
风速8节,风向西转西南
能見度: 10公里
散云层高于10000英尺
阴天层高于25000英尺

TAF: KIPL 071727Z 0718/0818 VRB04KT P6SM SCT090 BKN250 FM072300 VRB04KT P6SM VCSH BKN080 OVC120 FM080500 24004KT P6SM BKN090 OVC120 FM081400 25008KT P6SM SCT100 OVC250

超过4000个机场的气象观测和天气预报(METAR&TAF报告)。

可查询的气象台以黄色和红色小点在地图上表示。

将鼠标移到小点上方,可查看气象台名称。

然后点击查看天气观测和预报。

如需切换地图:点击带黑十字的绿色按钮放大地图;点击带横线的绿色按钮缩小地图;或者点击绿色箭头查看邻近地区的地图。


METAR-TAF: